Time;durP1;ratioP1;P1;durP2;ratioP2;P2;SDS_P1;SDS_P2;PMS_P1;PMS_P2;Temp;Humidity;BMP_temperature;BMP_pressure;BME280_temperature;BME280_humidity;BME280_pressure;Samples;Min_cycle;Max_cycle;Signal;HPM_P1;HPM_P2
2021/06/20 00:03:32;;;;;;;10.18;5.10;;;;;;;24.99;55.87;98247.66;4902231;29;20135;-79
2021/06/20 00:06:05;;;;;;;8.30;5.53;;;;;;;24.98;56.22;98245.97;4913182;29;20505;-79
2021/06/20 00:08:32;;;;;;;7.82;5.25;;;;;;;24.90;56.23;98241.09;4952737;28;20062;-78
2021/06/20 00:10:59;;;;;;;11.02;5.57;;;;;;;24.86;56.32;98242.84;4973832;28;20051;-78
2021/06/20 00:13:26;;;;;;;6.25;5.40;;;;;;;24.79;56.92;98247.94;4973496;28;20074;-78
2021/06/20 00:15:52;;;;;;;11.85;5.53;;;;;;;24.69;56.99;98218.34;4974826;28;20050;-79
2021/06/20 00:18:19;;;;;;;10.35;5.97;;;;;;;24.79;56.29;98226.53;4973709;28;20051;-79
2021/06/20 00:20:48;;;;;;;9.10;5.47;;;;;;;24.75;56.08;98225.50;4974671;28;20051;-79
2021/06/20 00:23:17;;;;;;;7.30;5.05;;;;;;;24.89;56.00;98239.47;4973581;28;20520;-78
2021/06/20 00:25:44;;;;;;;6.25;5.07;;;;;;;24.83;56.13;98233.16;4974307;28;20567;-78
2021/06/20 00:28:10;;;;;;;14.63;5.93;;;;;;;24.89;55.83;98240.28;4973918;28;20552;-79
2021/06/20 00:30:38;;;;;;;10.38;5.03;;;;;;;24.81;55.78;98237.34;4974940;28;20054;-79
2021/06/20 00:33:05;;;;;;;8.20;5.07;;;;;;;24.77;55.95;98251.03;4975922;28;20046;-79
2021/06/20 00:35:32;;;;;;;14.32;6.05;;;;;;;24.80;56.63;98249.63;4974387;28;20050;-79
2021/06/20 00:37:59;;;;;;;12.13;5.28;;;;;;;24.80;56.57;98244.88;4974401;28;20098;-79
2021/06/20 00:40:27;;;;;;;7.70;5.32;;;;;;;24.61;56.84;98253.19;4974310;28;20073;-79
2021/06/20 00:42:54;;;;;;;12.00;5.18;;;;;;;24.66;56.67;98253.13;4974153;28;20050;-79
2021/06/20 00:45:22;;;;;;;9.98;5.45;;;;;;;24.44;56.06;98258.41;4973655;28;20529;-79
2021/06/20 00:47:49;;;;;;;10.90;5.40;;;;;;;24.38;57.03;98280.69;4974253;28;20085;-79
2021/06/20 00:50:17;;;;;;;9.43;4.78;;;;;;;24.50;57.47;98280.25;4969707;28;20043;-79
2021/06/20 00:52:43;;;;;;;12.82;5.45;;;;;;;24.55;57.11;98290.47;4974268;28;20050;-79
2021/06/20 00:55:11;;;;;;;15.30;5.07;;;;;;;24.32;57.74;98273.56;4974056;28;20097;-78
2021/06/20 00:57:40;;;;;;;9.57;5.50;;;;;;;24.38;57.53;98275.13;4977346;28;20105;-78
2021/06/20 01:00:09;;;;;;;9.10;5.57;;;;;;;24.41;57.11;98298.72;4974064;28;20426;-79
2021/06/20 01:02:36;;;;;;;10.82;5.57;;;;;;;24.48;56.74;98293.63;4972965;28;20046;-79
2021/06/20 01:05:06;;;;;;;7.70;5.00;;;;;;;24.53;57.12;98296.34;4974081;28;20051;-78
2021/06/20 01:07:33;;;;;;;6.82;4.60;;;;;;;24.54;56.82;98295.22;4972620;28;20076;-79
2021/06/20 01:10:00;;;;;;;10.02;5.72;;;;;;;24.67;58.01;98293.66;4973809;28;20499;-79
2021/06/20 01:12:27;;;;;;;10.93;5.55;;;;;;;24.54;58.46;98300.78;4973772;28;20055;-78
2021/06/20 01:14:55;;;;;;;7.15;5.30;;;;;;;24.37;59.94;98292.94;4973017;28;20073;-78
2021/06/20 01:17:22;;;;;;;9.90;5.50;;;;;;;24.25;59.01;98295.28;4973594;28;20054;-78
2021/06/20 01:19:51;;;;;;;9.98;5.53;;;;;;;24.39;58.11;98299.03;4973676;28;20054;-78
2021/06/20 01:22:24;;;;;;;8.80;5.65;;;;;;;24.28;58.69;98299.44;4969122;28;20050;-80
2021/06/20 01:24:53;;;;;;;15.63;7.72;;;;;;;24.32;59.54;98306.88;4973128;28;20047;-79
2021/06/20 01:27:20;;;;;;;6.85;5.25;;;;;;;24.22;60.17;98307.00;4972234;28;20074;-79
2021/06/20 01:29:48;;;;;;;10.50;5.50;;;;;;;24.08;61.08;98308.84;4973386;28;20046;-79
2021/06/20 01:32:16;;;;;;;6.72;5.30;;;;;;;24.01;60.99;98312.81;4966826;28;20055;-79
2021/06/20 01:34:45;;;;;;;10.48;5.68;;;;;;;24.09;60.05;98318.81;4973091;28;20450;-79
2021/06/20 01:37:13;;;;;;;9.18;5.65;;;;;;;24.24;60.55;98324.22;4973022;28;20117;-78
2021/06/20 01:39:42;;;;;;;7.10;4.95;;;;;;;24.10;61.27;98315.72;4969327;28;20218;-78
2021/06/20 01:42:12;;;;;;;16.00;5.73;;;;;;;24.01;61.10;98325.81;4973351;28;20071;-79
2021/06/20 01:44:51;;;;;;;11.50;5.50;;;;;;;23.89;61.32;98328.19;4972624;28;20479;-79
2021/06/20 01:47:19;;;;;;;6.70;5.00;;;;;;;23.76;61.33;98321.34;4973200;28;20042;-79
2021/06/20 01:49:46;;;;;;;8.18;5.28;;;;;;;23.58;61.88;98329.28;4972765;28;20451;-79
2021/06/20 01:52:13;;;;;;;10.73;5.28;;;;;;;23.59;61.38;98332.88;4972864;28;20392;-79
2021/06/20 01:54:51;;;;;;;11.48;5.97;;;;;;;23.57;61.44;98343.44;4969177;28;20047;-79
2021/06/20 01:57:19;;;;;;;11.35;5.97;;;;;;;23.59;61.58;98343.97;4968740;28;20054;-79
2021/06/20 01:59:46;;;;;;;13.85;5.80;;;;;;;23.53;62.34;98343.19;4972764;28;20054;-79
2021/06/20 02:02:13;;;;;;;12.00;6.15;;;;;;;23.37;62.10;98339.72;4973350;28;20058;-79
2021/06/20 02:04:40;;;;;;;15.23;6.07;;;;;;;23.29;62.88;98343.94;4971953;28;20093;-79
2021/06/20 02:07:08;;;;;;;12.40;6.00;;;;;;;23.24;63.48;98349.50;4972652;28;20047;-78
2021/06/20 02:09:34;;;;;;;28.48;6.80;;;;;;;23.28;63.98;98363.63;4972371;28;20134;-79
2021/06/20 02:12:03;;;;;;;17.83;6.28;;;;;;;23.30;63.84;98364.97;4967996;28;20117;-79
2021/06/20 02:14:30;;;;;;;18.05;6.45;;;;;;;23.19;64.49;98357.84;4972122;28;20050;-79
2021/06/20 02:16:56;;;;;;;21.60;6.57;;;;;;;23.07;64.49;98357.34;4972352;28;20059;-79
2021/06/20 02:19:23;;;;;;;16.20;6.85;;;;;;;23.05;64.58;98370.66;4972369;28;20519;-79
2021/06/20 02:21:50;;;;;;;15.60;5.68;;;;;;;23.18;63.88;98383.09;4972583;28;20050;-78
2021/06/20 02:24:17;;;;;;;20.90;5.60;;;;;;;23.28;63.67;98394.13;4971983;28;20070;-79
2021/06/20 02:26:44;;;;;;;16.13;5.78;;;;;;;23.23;63.58;98389.44;4972923;28;20095;-79
2021/06/20 02:29:12;;;;;;;19.77;5.68;;;;;;;23.24;62.92;98381.94;4969173;28;20102;-79
2021/06/20 02:31:38;;;;;;;13.73;6.18;;;;;;;23.44;62.61;98408.69;4972541;28;20050;-79
2021/06/20 02:34:05;;;;;;;18.02;6.38;;;;;;;23.37;62.89;98386.84;4971726;28;20051;-79
2021/06/20 02:36:32;;;;;;;18.17;6.80;;;;;;;23.64;62.49;98418.84;4972616;28;20054;-79
2021/06/20 02:38:59;;;;;;;28.55;7.45;;;;;;;23.69;62.66;98418.78;4975244;28;20058;-79
2021/06/20 02:41:25;;;;;;;22.17;7.82;;;;;;;23.75;62.67;98422.38;4972031;28;20286;-79
2021/06/20 02:43:52;;;;;;;24.63;6.78;;;;;;;23.71;62.95;98433.22;4972769;28;20058;-79
2021/06/20 02:46:20;;;;;;;24.90;6.82;;;;;;;23.72;62.65;98425.72;4971111;28;20455;-79
2021/06/20 02:48:47;;;;;;;19.45;6.80;;;;;;;23.71;62.95;98422.13;4972089;28;20385;-80
2021/06/20 02:51:13;;;;;;;21.98;6.30;;;;;;;23.76;63.33;98429.56;4972288;28;20109;-80
2021/06/20 02:53:40;;;;;;;25.08;6.53;;;;;;;23.71;63.49;98426.81;4972022;28;20055;-79
2021/06/20 02:56:07;;;;;;;32.45;8.20;;;;;;;23.73;63.56;98422.66;4972271;28;20105;-80
2021/06/20 02:58:34;;;;;;;23.95;6.40;;;;;;;23.79;63.77;98443.69;4971691;28;20422;-79
2021/06/20 03:01:01;;;;;;;32.42;6.55;;;;;;;23.77;63.61;98420.13;4972156;28;20047;-79
2021/06/20 03:03:29;;;;;;;20.02;6.75;;;;;;;23.81;63.52;98447.00;4963430;28;20482;-79
2021/06/20 03:05:56;;;;;;;36.83;9.35;;;;;;;23.84;63.64;98449.19;4971361;28;20407;-80
2021/06/20 03:08:22;;;;;;;23.42;6.60;;;;;;;23.90;63.64;98463.06;4972222;28;20122;-80
2021/06/20 03:10:49;;;;;;;20.90;6.53;;;;;;;23.76;63.94;98458.16;4971829;28;20125;-80
2021/06/20 03:13:16;;;;;;;27.42;6.55;;;;;;;23.84;63.61;98456.69;4972149;28;20047;-80
2021/06/20 03:15:43;;;;;;;21.35;6.22;;;;;;;23.81;63.51;98468.38;4971222;28;20054;-80
2021/06/20 03:18:10;;;;;;;24.00;5.38;;;;;;;23.78;63.97;98474.50;4972222;28;20406;-80
2021/06/20 03:20:38;;;;;;;22.88;5.65;;;;;;;23.80;63.39;98475.03;4964275;28;20345;-80
2021/06/20 03:23:09;;;;;;;21.13;5.82;;;;;;;23.87;63.52;98469.22;4971373;28;20555;-80
2021/06/20 03:25:36;;;;;;;22.10;5.40;;;;;;;23.82;63.40;98470.88;4971854;28;20089;-80
2021/06/20 03:28:03;;;;;;;22.42;5.70;;;;;;;23.83;63.50;98461.44;4971529;28;20050;-80
2021/06/20 03:30:30;;;;;;;23.90;5.60;;;;;;;23.87;63.59;98475.56;4971965;28;20055;-80
2021/06/20 03:32:57;;;;;;;27.35;5.72;;;;;;;23.83;63.66;98469.75;4971685;28;20090;-80
2021/06/20 03:35:23;;;;;;;21.75;5.63;;;;;;;23.89;63.90;98476.09;4970359;28;20058;-80
2021/06/20 03:37:52;;;;;;;20.17;6.55;;;;;;;23.77;64.33;98482.00;4971417;28;20459;-80
2021/06/20 03:40:19;;;;;;;25.55;6.32;;;;;;;23.75;64.89;98473.13;4972068;28;20058;-80
2021/06/20 03:42:45;;;;;;;25.15;5.53;;;;;;;23.63;64.95;98486.53;4970935;28;20388;-80
2021/06/20 03:45:12;;;;;;;30.08;6.75;;;;;;;23.76;64.54;98482.31;4973036;28;20454;-80
2021/06/20 03:47:39;;;;;;;29.00;5.50;;;;;;;23.82;63.99;98478.38;4975239;28;20105;-80
2021/06/20 03:50:08;;;;;;;24.38;5.65;;;;;;;23.75;65.19;98484.22;4975233;28;20055;-80
2021/06/20 03:52:35;;;;;;;23.10;5.73;;;;;;;23.79;64.55;98484.50;4962744;28;20051;-80
2021/06/20 03:55:04;;;;;;;29.45;5.85;;;;;;;23.81;64.85;98501.69;4974309;28;20309;-80
2021/06/20 03:57:30;;;;;;;25.42;6.18;;;;;;;23.59;65.58;98491.84;4975298;28;20050;-80
2021/06/20 03:59:57;;;;;;;17.52;6.50;;;;;;;23.75;64.67;98484.22;4974690;28;20462;-80
2021/06/20 04:02:24;;;;;;;22.10;5.90;;;;;;;23.76;64.89;98485.06;4975535;28;20047;-80
2021/06/20 04:04:51;;;;;;;19.08;5.13;;;;;;;23.84;65.52;98479.72;4974470;28;20467;-80
2021/06/20 04:07:18;;;;;;;28.00;6.22;;;;;;;23.72;66.24;98476.47;4974085;28;20102;-80
2021/06/20 04:09:45;;;;;;;28.23;6.28;;;;;;;23.70;66.60;98487.06;4974794;28;20058;-80
2021/06/20 04:12:14;;;;;;;29.25;7.03;;;;;;;23.51;67.38;98503.53;4974379;28;20466;-80
2021/06/20 04:14:43;;;;;;;15.68;5.13;;;;;;;23.46;67.27;98507.16;4974729;28;20074;-80
2021/06/20 04:17:10;;;;;;;26.40;5.57;;;;;;;23.59;66.81;98511.25;4974290;28;20463;-80
2021/06/20 04:19:37;;;;;;;23.67;6.03;;;;;;;23.61;65.86;98491.56;4974053;28;20511;-79
2021/06/20 04:22:04;;;;;;;32.25;6.38;;;;;;;23.62;66.53;98484.88;4974727;28;20093;-79
2021/06/20 04:24:31;;;;;;;17.52;5.65;;;;;;;23.46;67.59;98478.59;4973443;28;20102;-80
2021/06/20 04:26:58;;;;;;;22.63;7.05;;;;;;;23.53;67.45;98479.13;4974771;28;20055;-79
2021/06/20 04:29:26;;;;;;;18.65;5.82;;;;;;;23.48;68.25;98474.41;4974579;28;20119;-80
2021/06/20 04:31:53;;;;;;;28.13;5.82;;;;;;;23.50;66.91;98474.97;4975128;28;20058;-80
2021/06/20 04:34:20;;;;;;;16.25;5.15;;;;;;;23.59;67.21;98483.53;4973897;28;20122;-80
2021/06/20 04:36:47;;;;;;;19.77;5.90;;;;;;;23.79;67.58;98459.53;4975010;28;20242;-80
2021/06/20 04:39:14;;;;;;;22.15;6.40;;;;;;;23.95;67.17;98471.34;4974175;28;20050;-79
2021/06/20 04:41:41;;;;;;;23.27;6.30;;;;;;;23.89;68.30;98465.00;4974399;28;20105;-80
2021/06/20 04:44:42;;;;;;;23.55;5.90;;;;;;;24.01;68.88;98489.63;4974260;28;20073;-80
2021/06/20 04:46:57;;;;;;;20.65;5.57;;;;;;;23.75;69.17;98466.75;4973093;28;20054;-80
2021/06/20 04:49:24;;;;;;;26.30;6.43;;;;;;;23.82;68.56;98486.69;4973944;28;20094;-80
2021/06/20 04:51:51;;;;;;;16.70;5.43;;;;;;;24.00;68.13;98488.81;4974649;28;20046;-80
2021/06/20 04:54:17;;;;;;;17.17;5.38;;;;;;;24.12;67.95;98476.50;4974557;28;20055;-80
2021/06/20 04:56:44;;;;;;;18.35;5.03;;;;;;;23.99;67.00;98461.31;4971904;28;20090;-79
2021/06/20 04:59:11;;;;;;;24.73;5.35;;;;;;;24.06;67.31;98458.19;4974299;28;20046;-80
2021/06/20 05:01:39;;;;;;;36.42;8.20;;;;;;;24.26;67.25;98479.44;4974016;28;20043;-80
2021/06/20 05:04:08;;;;;;;22.05;5.82;;;;;;;24.35;66.41;98467.38;4974408;28;20047;-80
2021/06/20 05:06:35;;;;;;;23.77;6.28;;;;;;;24.35;65.64;98483.22;4973553;28;20514;-80
2021/06/20 05:09:02;;;;;;;19.63;5.07;;;;;;;24.44;65.50;98475.09;4973713;28;20057;-79
2021/06/20 05:11:29;;;;;;;19.40;5.88;;;;;;;24.72;65.06;98484.53;4973670;28;20051;-79
2021/06/20 05:13:56;;;;;;;22.35;5.18;;;;;;;24.66;63.52;98471.81;4972120;28;20454;-80
2021/06/20 05:16:23;;;;;;;21.58;6.07;;;;;;;25.03;62.86;98489.75;4973861;28;20492;-79
2021/06/20 05:18:49;;;;;;;18.58;5.63;;;;;;;25.19;62.81;98468.97;4973031;28;20109;-80
2021/06/20 05:21:18;;;;;;;31.10;5.28;;;;;;;25.21;61.57;98485.34;4973657;28;20101;-80
2021/06/20 05:23:45;;;;;;;21.30;5.07;;;;;;;25.44;60.47;98487.31;4973813;28;20087;-80
2021/06/20 05:26:11;;;;;;;20.73;6.22;;;;;;;25.65;61.88;98483.38;4973009;28;20459;-80
2021/06/20 05:28:38;;;;;;;22.60;5.55;;;;;;;25.56;60.66;98505.50;4973765;28;20479;-80
2021/06/20 05:31:05;;;;;;;23.15;5.43;;;;;;;25.59;61.65;98504.91;4972213;28;20051;-80
2021/06/20 05:33:32;;;;;;;17.45;4.55;;;;;;;25.32;60.73;98509.16;4954268;28;20062;-80
2021/06/20 05:35:59;;;;;;;20.77;5.75;;;;;;;25.07;61.67;98526.97;4965137;28;20047;-80
2021/06/20 05:38:27;;;;;;;19.85;5.25;;;;;;;25.09;62.22;98536.66;4972842;28;20647;-80
2021/06/20 05:40:53;;;;;;;24.75;5.30;;;;;;;25.14;63.75;98532.16;4973392;28;20727;-79
2021/06/20 05:43:20;;;;;;;16.17;5.13;;;;;;;25.14;61.73;98543.28;4972477;28;20050;-80
2021/06/20 05:45:55;;;;;;;20.77;4.15;;;;;;;25.13;60.58;98542.47;4973193;28;20050;-80
2021/06/20 05:48:24;;;;;;;20.55;4.53;;;;;;;25.18;60.09;98545.16;4966697;28;20054;-80
2021/06/20 05:50:51;;;;;;;16.63;4.55;;;;;;;25.12;59.16;98534.41;4972954;28;20050;-79
2021/06/20 05:53:18;;;;;;;16.17;5.40;;;;;;;24.96;60.24;98545.72;4973130;28;20046;-80
2021/06/20 05:55:47;;;;;;;22.40;4.15;;;;;;;24.98;59.39;98546.25;4972754;28;20101;-78
2021/06/20 05:58:14;;;;;;;13.13;3.70;;;;;;;24.66;61.26;98558.81;4972988;28;20105;-79
2021/06/20 06:00:41;;;;;;;16.88;5.10;;;;;;;24.56;60.88;98519.97;4972883;28;20133;-79
2021/06/20 06:03:07;;;;;;;14.27;3.75;;;;;;;24.42;61.53;98527.31;4971961;28;20451;-79
2021/06/20 06:05:37;;;;;;;14.98;4.15;;;;;;;24.43;61.68;98517.88;4971112;28;20498;-79
2021/06/20 06:08:04;;;;;;;16.23;5.35;;;;;;;24.45;61.80;98532.28;4971795;28;20514;-79
2021/06/20 06:10:35;;;;;;;19.60;3.63;;;;;;;24.48;61.63;98527.00;4972563;28;20057;-81
2021/06/20 06:13:03;;;;;;;21.90;4.55;;;;;;;24.72;62.76;98532.63;4973045;28;20054;-79
2021/06/20 06:15:31;;;;;;;20.27;3.70;;;;;;;24.72;61.77;98531.78;4971299;28;20113;-79
2021/06/20 06:18:01;;;;;;;14.68;4.50;;;;;;;24.96;62.42;98539.31;4964925;28;20059;-79
2021/06/20 06:20:28;;;;;;;6.35;3.53;;;;;;;25.05;61.32;98534.75;4959587;28;20046;-80
2021/06/20 06:22:57;;;;;;;12.50;3.40;;;;;;;25.51;59.87;98548.13;4972448;28;20051;-80
2021/06/20 06:25:23;;;;;;;12.20;3.33;;;;;;;26.13;57.05;98536.94;4971891;28;20050;-80
2021/06/20 06:27:51;;;;;;;10.85;3.70;;;;;;;26.63;55.39;98533.63;4970505;28;20054;-80
2021/06/20 06:30:20;;;;;;;21.85;3.92;;;;;;;26.89;54.60;98552.69;4972444;28;20047;-80
2021/06/20 06:32:49;;;;;;;16.90;3.92;;;;;;;26.63;54.33;98555.06;4971870;28;20455;-81
2021/06/20 06:35:19;;;;;;;9.52;3.13;;;;;;;26.61;54.67;98563.75;4969046;28;20047;-80
2021/06/20 06:37:49;;;;;;;13.90;3.88;;;;;;;26.77;54.41;98561.56;4970438;28;20511;-80
2021/06/20 06:40:16;;;;;;;17.98;3.08;;;;;;;26.39;53.76;98574.72;4972571;28;20050;-79
2021/06/20 06:42:43;;;;;;;12.43;3.60;;;;;;;26.32;54.46;98569.56;4971818;28;20104;-79
2021/06/20 06:45:16;;;;;;;18.77;3.22;;;;;;;26.59;52.99;98568.81;4971463;28;20061;-79
2021/06/20 06:47:44;;;;;;;15.18;3.00;;;;;;;26.75;52.70;98586.13;4972297;28;20047;-79
2021/06/20 06:50:11;;;;;;;12.13;2.78;;;;;;;26.52;51.52;98601.00;4972057;28;20050;-80
2021/06/20 06:52:47;;;;;;;15.57;3.47;;;;;;;26.25;51.87;98597.78;4968836;28;20048;-78
2021/06/20 06:55:14;;;;;;;11.65;3.25;;;;;;;25.97;52.79;98599.59;4963595;28;20050;-81
2021/06/20 06:57:41;;;;;;;10.13;2.60;;;;;;;25.84;53.27;98603.94;4972263;28;20101;-79
2021/06/20 07:00:11;;;;;;;9.40;2.88;;;;;;;25.94;53.50;98594.59;4972324;28;20093;-79
2021/06/20 07:02:38;;;;;;;12.63;2.80;;;;;;;25.88;53.25;98588.28;4965497;28;20051;-80
2021/06/20 07:05:14;;;;;;;12.55;3.03;;;;;;;25.71;53.37;98588.78;4971883;28;20097;-80
2021/06/20 07:07:40;;;;;;;13.32;2.50;;;;;;;25.74;51.84;98579.84;4971916;28;20054;-80
2021/06/20 07:10:08;;;;;;;10.63;2.60;;;;;;;25.87;52.04;98594.16;4969201;28;20568;-80
2021/06/20 07:12:34;;;;;;;7.90;2.30;;;;;;;25.95;52.15;98593.47;4972236;28;20047;-80
2021/06/20 07:15:04;;;;;;;11.57;2.83;;;;;;;25.77;51.91;98587.59;4971701;28;20051;-81
2021/06/20 07:17:31;;;;;;;;;;;;;;;26.06;52.15;98597.81;4970795;28;20055;-80
2021/06/20 07:20:02;;;;;;;10.38;2.78;;;;;;;25.85;51.83;98586.09;4975086;28;19929;-80
2021/06/20 07:22:30;;;;;;;9.13;2.35;;;;;;;25.63;52.94;98571.94;4975985;28;20389;-81
2021/06/20 07:24:57;;;;;;;9.07;2.55;;;;;;;25.54;53.18;98588.47;4975070;28;20047;-80
2021/06/20 07:27:49;;;;;;;4.50;2.35;;;;;;;25.75;52.40;98573.13;4975209;28;20461;-80
2021/06/20 07:30:30;;;;;;;8.75;3.67;;;;;;;25.55;52.65;98568.69;4964268;28;20483;-80
2021/06/20 07:32:57;;;;;;;8.80;2.60;;;;;;;25.56;51.81;98564.78;4974501;28;20278;-80
2021/06/20 07:35:24;;;;;;;9.55;2.20;;;;;;;25.91;51.41;98576.53;4976843;28;20098;-80
2021/06/20 07:37:52;;;;;;;10.82;1.85;;;;;;;26.35;50.58;98584.84;4975844;28;20086;-80
2021/06/20 07:40:21;;;;;;;10.98;3.00;;;;;;;26.58;50.26;98583.06;4974523;28;20233;-80
2021/06/20 07:42:48;;;;;;;8.57;2.10;;;;;;;26.56;49.46;98577.78;4975465;28;20047;-81
2021/06/20 07:45:16;;;;;;;10.98;2.67;;;;;;;26.49;49.42;98583.72;4974705;28;20569;-81
2021/06/20 07:47:49;;;;;;;6.82;2.20;;;;;;;26.46;49.87;98589.91;4972566;28;20046;-80
2021/06/20 07:50:17;;;;;;;6.07;1.95;;;;;;;26.48;50.00;98593.25;4976107;28;20050;-80
2021/06/20 07:52:44;;;;;;;10.32;2.50;;;;;;;26.52;49.13;98601.81;4974644;28;20047;-80
2021/06/20 07:55:14;;;;;;;7.78;2.33;;;;;;;26.68;49.19;98596.84;4965497;28;20086;-80
2021/06/20 07:57:42;;;;;;;11.50;2.42;;;;;;;26.59;49.98;98605.06;4974342;28;20423;-80
2021/06/20 08:00:10;;;;;;;4.85;1.98;;;;;;;26.78;49.05;98604.19;4974780;28;20055;-80
2021/06/20 08:02:38;;;;;;;8.88;2.67;;;;;;;26.78;48.93;98602.25;4974575;28;20503;-80
2021/06/20 08:05:06;;;;;;;11.73;2.88;;;;;;;26.71;48.77;98601.81;4972707;28;20054;-80
2021/06/20 08:07:34;;;;;;;11.88;2.05;;;;;;;26.23;50.19;98593.66;4974862;28;20074;-80
2021/06/20 08:10:00;;;;;;;10.77;2.50;;;;;;;26.35;51.15;98582.88;4968970;28;20046;-80
2021/06/20 08:12:29;;;;;;;13.60;3.05;;;;;;;26.39;50.67;98594.22;4974400;28;20113;-80
2021/06/20 08:14:57;;;;;;;9.13;1.95;;;;;;;26.52;51.75;98596.25;4973499;28;20055;-80
2021/06/20 08:17:24;;;;;;;6.35;2.40;;;;;;;26.61;50.68;98590.81;4959774;28;20055;-79
2021/06/20 08:19:51;;;;;;;10.45;2.22;;;;;;;26.45;50.78;98579.94;4972740;28;20054;-79
2021/06/20 08:22:18;;;;;;;11.40;1.98;;;;;;;26.18;51.37;98568.66;4974123;28;20058;-80
2021/06/20 08:24:49;;;;;;;8.23;2.40;;;;;;;26.12;51.87;98567.91;4974025;28;20053;-79
2021/06/20 08:27:16;;;;;;;5.30;1.80;;;;;;;25.93;51.18;98560.34;4974472;28;20150;-79
2021/06/20 08:29:44;;;;;;;13.30;2.65;;;;;;;25.79;51.84;98549.16;4973910;28;20447;-79
2021/06/20 08:32:13;;;;;;;4.85;2.38;;;;;;;25.62;52.53;98537.69;4972763;28;20050;-80
2021/06/20 08:34:40;;;;;;;10.27;2.60;;;;;;;25.54;51.55;98541.97;4973973;28;20106;-80
2021/06/20 08:37:07;;;;;;;5.60;1.85;;;;;;;25.68;52.14;98539.28;4974498;28;20093;-79
2021/06/20 08:39:33;;;;;;;7.65;3.22;;;;;;;25.47;52.31;98512.88;4973694;28;20055;-80
2021/06/20 08:42:00;;;;;;;6.00;2.20;;;;;;;25.49;51.98;98525.34;4974229;28;20495;-79
2021/06/20 08:44:30;;;;;;;9.05;3.35;;;;;;;25.48;52.93;98534.81;4974139;28;20471;-79
2021/06/20 08:46:59;;;;;;;5.68;2.15;;;;;;;25.50;52.71;98520.59;4973446;28;20078;-80
2021/06/20 08:49:27;;;;;;;4.78;1.95;;;;;;;25.86;52.78;98518.13;4973158;28;20089;-79
2021/06/20 08:51:56;;;;;;;5.63;1.75;;;;;;;26.07;50.93;98517.84;4974369;28;20051;-78
2021/06/20 08:54:24;;;;;;;9.80;2.00;;;;;;;25.99;50.53;98516.59;4972751;28;20047;-79
2021/06/20 08:56:51;;;;;;;7.43;2.22;;;;;;;26.08;49.79;98531.47;4954670;28;20464;-79
2021/06/20 08:59:20;;;;;;;4.85;1.88;;;;;;;26.05;50.00;98522.91;4954874;28;20083;-79
2021/06/20 09:01:47;;;;;;;11.38;2.33;;;;;;;26.28;48.95;98510.00;4973596;28;20436;-79
2021/06/20 09:04:27;;;;;;;9.40;1.80;;;;;;;26.23;48.81;98510.91;4973418;28;20050;-79
2021/06/20 09:06:54;;;;;;;4.88;2.00;;;;;;;26.25;49.88;98508.63;4955950;28;20445;-79
2021/06/20 09:09:29;;;;;;;7.20;2.10;;;;;;;26.34;50.69;98508.75;4954244;28;20051;-79
2021/06/20 09:12:08;;;;;;;8.70;2.38;;;;;;;26.16;51.23;98523.56;4973023;28;20462;-79
2021/06/20 09:14:43;;;;;;;5.18;2.17;;;;;;;26.45;51.27;98514.97;4972631;28;20051;-79
2021/06/20 09:17:10;;;;;;;10.05;2.72;;;;;;;26.66;51.09;98521.00;4970118;28;20147;-79
2021/06/20 09:19:38;;;;;;;53.05;4.85;;;;;;;26.41;51.77;98513.97;4973701;28;20042;-80
2021/06/20 09:22:08;;;;;;;9.93;2.30;;;;;;;26.52;50.51;98512.63;4961383;28;20061;-78
2021/06/20 09:24:35;;;;;;;;;;;;;;;26.50;49.72;98509.34;4953786;28;20285;-79
2021/06/20 09:27:05;;;;;;;8.65;2.20;;;;;;;26.52;49.48;98511.81;4972908;28;19969;-79
2021/06/20 09:29:33;;;;;;;9.27;2.90;;;;;;;26.50;50.43;98503.75;4972692;28;20080;-79
2021/06/20 09:32:02;;;;;;;5.78;2.38;;;;;;;26.34;52.36;98505.16;4973654;28;20074;-79
2021/06/20 09:34:28;;;;;;;12.25;2.70;;;;;;;26.36;51.21;98491.75;4972563;28;20063;-79
2021/06/20 09:37:04;;;;;;;9.18;2.40;;;;;;;26.28;50.55;98496.06;4973728;28;20078;-80
2021/06/20 09:39:32;;;;;;;5.22;2.47;;;;;;;26.31;51.53;98503.81;4972141;28;20109;-80
2021/06/20 09:42:00;;;;;;;6.70;1.92;;;;;;;26.17;50.03;98505.72;4972637;28;20075;-79
2021/06/20 09:44:35;;;;;;;7.15;2.50;;;;;;;26.32;51.13;98509.06;4972656;28;20048;-80
2021/06/20 09:47:01;;;;;;;7.30;2.90;;;;;;;26.44;53.06;98499.41;4973258;28;20106;-80
2021/06/20 09:49:28;;;;;;;13.38;3.60;;;;;;;26.53;52.05;98491.16;4973126;28;20058;-80
2021/06/20 09:51:56;;;;;;;9.50;3.03;;;;;;;26.82;50.50;98494.53;4971863;28;20153;-80
2021/06/20 09:54:29;;;;;;;10.20;2.40;;;;;;;26.89;51.25;98493.28;4970175;28;20411;-80
2021/06/20 09:56:56;;;;;;;15.25;2.88;;;;;;;26.87;48.95;98503.94;4971994;28;20050;-80
2021/06/20 09:59:28;;;;;;;9.70;2.10;;;;;;;27.15;48.47;98502.81;4972736;28;20121;-80
2021/06/20 10:01:55;;;;;;;8.88;2.40;;;;;;;27.23;48.44;98506.81;4972707;28;20119;-80
2021/06/20 10:04:21;;;;;;;5.38;1.90;;;;;;;27.06;49.39;98501.88;4972580;28;20046;-81
2021/06/20 10:06:48;;;;;;;10.27;2.78;;;;;;;27.41;48.02;98502.28;4972399;28;20488;-81
2021/06/20 10:09:16;;;;;;;8.55;2.22;;;;;;;27.63;49.58;98489.53;4972018;28;20050;-80
2021/06/20 10:11:44;;;;;;;14.60;3.55;;;;;;;27.79;48.97;98490.84;4972171;28;20051;-80
2021/06/20 10:14:11;;;;;;;10.98;3.15;;;;;;;27.93;50.32;98495.53;4971818;28;20470;-80
2021/06/20 10:16:40;;;;;;;15.18;2.80;;;;;;;27.88;47.84;98493.69;4954974;28;20191;-80
2021/06/20 10:19:12;;;;;;;10.77;2.80;;;;;;;27.85;48.83;98488.72;4953120;29;20114;-80
2021/06/20 10:21:42;;;;;;;10.63;2.95;;;;;;;27.67;49.40;98484.97;4969947;28;20046;-80
2021/06/20 10:24:10;;;;;;;;;;;;;;;27.84;50.25;98479.53;4973207;28;20059;-80
2021/06/20 10:26:37;;;;;;;11.05;2.83;;;;;;;27.55;49.41;98477.97;4971468;28;19973;-80
2021/06/20 10:29:20;;;;;;;7.82;3.63;;;;;;;27.49;50.59;98481.19;4972618;28;20098;-80
2021/06/20 10:31:48;;;;;;;12.70;3.15;;;;;;;27.52;51.24;98475.81;4967378;28;20556;-80
2021/06/20 10:34:27;;;;;;;12.13;3.25;;;;;;;27.27;52.20;98470.78;4991728;28;20058;-80
2021/06/20 10:36:56;;;;;;;12.83;2.93;;;;;;;27.17;51.48;98463.44;4957051;28;20487;-80
2021/06/20 10:39:24;;;;;;;12.07;2.65;;;;;;;27.05;52.56;98458.38;4971895;28;20046;-80
2021/06/20 10:42:06;;;;;;;8.32;2.90;;;;;;;26.83;52.53;98442.41;4973053;28;20443;-79
2021/06/20 10:44:46;;;;;;;8.13;2.78;;;;;;;26.70;53.85;98446.00;4971967;28;20058;-80
2021/06/20 10:47:13;;;;;;;9.68;2.50;;;;;;;26.83;53.16;98431.25;4970832;28;20495;-80
2021/06/20 10:49:40;;;;;;;11.20;3.20;;;;;;;26.79;53.20;98435.78;4964478;28;20105;-80
2021/06/20 10:52:18;;;;;;;13.00;3.72;;;;;;;26.93;52.68;98432.97;4972161;28;20108;-80
2021/06/20 10:54:51;;;;;;;8.95;2.80;;;;;;;26.80;53.94;98406.78;4973412;28;20085;-79
2021/06/20 10:57:33;;;;;;;6.88;2.45;;;;;;;26.91;53.85;98412.97;4976435;28;20450;-80
2021/06/20 11:00:01;;;;;;;14.43;3.40;;;;;;;27.31;51.50;98405.66;4976166;28;20154;-80
2021/06/20 11:02:35;;;;;;;17.10;3.50;;;;;;;27.46;52.61;98421.25;4975863;28;20443;-80
2021/06/20 11:05:03;;;;;;;16.80;3.40;;;;;;;27.67;51.48;98427.19;4967530;28;20050;-80
2021/06/20 11:07:30;;;;;;;15.52;3.15;;;;;;;27.73;51.07;98411.94;4975485;28;20567;-80
2021/06/20 11:09:57;;;;;;;11.07;2.97;;;;;;;27.68;51.61;98398.09;4975699;28;20055;-81
2021/06/20 11:12:26;;;;;;;10.68;3.80;;;;;;;28.00;51.16;98393.44;4975620;28;20054;-80
2021/06/20 11:14:54;;;;;;;12.73;3.78;;;;;;;28.15;49.42;98405.34;4975268;28;20479;-80
2021/06/20 11:17:34;;;;;;;13.32;3.30;;;;;;;28.49;51.17;98404.69;4974470;28;20082;-80
2021/06/20 11:20:10;;;;;;;;;;;;;;;28.56;49.91;98409.81;4973927;28;20451;-80
2021/06/20 11:22:37;;;;;;;16.45;4.10;;;;;;;28.72;49.69;98399.06;4973916;28;19930;-81
2021/06/20 11:25:04;;;;;;;10.32;3.42;;;;;;;29.18;48.99;98397.69;4975466;28;20047;-81
2021/06/20 11:27:33;;;;;;;14.20;4.00;;;;;;;29.41;48.02;98404.00;4975419;28;20110;-81
2021/06/20 11:30:00;;;;;;;15.30;4.32;;;;;;;29.66;46.98;98396.75;4975374;28;20047;-81
2021/06/20 11:32:30;;;;;;;13.15;3.30;;;;;;;29.63;47.65;98399.41;4975059;28;20055;-78
2021/06/20 11:34:58;;;;;;;14.40;4.03;;;;;;;29.73;48.15;98404.66;4974732;28;20462;-79
2021/06/20 11:37:26;;;;;;;14.23;3.63;;;;;;;29.74;48.05;98389.50;4975096;28;20082;-79